sensor_id;sensor_type;location;lat;lon;timestamp;P1;durP1;ratioP1;P2;durP2;ratioP2
20792;SDS011;10556;-33.662;151.094;2022-12-29T00:01:53;3.27;;;1.20;;
20792;SDS011;10556;-33.662;151.094;2022-12-29T00:06:55;3.50;;;1.00;;
20792;SDS011;10556;-33.662;151.094;2022-12-29T00:12:00;3.90;;;1.23;;
20792;SDS011;10556;-33.662;151.094;2022-12-29T00:17:03;4.53;;;1.40;;
20792;SDS011;10556;-33.662;151.094;2022-12-29T00:22:06;2.77;;;0.87;;
20792;SDS011;10556;-33.662;151.094;2022-12-29T00:27:12;2.77;;;1.10;;
20792;SDS011;10556;-33.662;151.094;2022-12-29T00:32:14;1.57;;;0.83;;
20792;SDS011;10556;-33.662;151.094;2022-12-29T00:37:17;2.13;;;0.90;;
20792;SDS011;10556;-33.662;151.094;2022-12-29T00:42:21;4.10;;;1.43;;
20792;SDS011;10556;-33.662;151.094;2022-12-29T00:47:24;2.23;;;1.10;;
20792;SDS011;10556;-33.662;151.094;2022-12-29T00:52:26;5.63;;;1.00;;
20792;SDS011;10556;-33.662;151.094;2022-12-29T00:57:30;1.30;;;0.80;;
20792;SDS011;10556;-33.662;151.094;2022-12-29T01:02:33;4.30;;;0.93;;
20792;SDS011;10556;-33.662;151.094;2022-12-29T01:07:35;2.60;;;0.73;;
20792;SDS011;10556;-33.662;151.094;2022-12-29T01:12:39;7.07;;;0.97;;
20792;SDS011;10556;-33.662;151.094;2022-12-29T01:17:42;3.03;;;0.80;;
20792;SDS011;10556;-33.662;151.094;2022-12-29T01:22:44;1.77;;;0.70;;
20792;SDS011;10556;-33.662;151.094;2022-12-29T01:27:49;3.50;;;0.83;;
20792;SDS011;10556;-33.662;151.094;2022-12-29T01:32:51;1.73;;;0.83;;
20792;SDS011;10556;-33.662;151.094;2022-12-29T01:37:54;3.07;;;1.00;;
20792;SDS011;10556;-33.662;151.094;2022-12-29T01:42:58;2.77;;;0.70;;
20792;SDS011;10556;-33.662;151.094;2022-12-29T01:48:01;3.63;;;1.00;;
20792;SDS011;10556;-33.662;151.094;2022-12-29T01:53:05;5.10;;;1.73;;
20792;SDS011;10556;-33.662;151.094;2022-12-29T01:58:13;4.47;;;1.30;;
20792;SDS011;10556;-33.662;151.094;2022-12-29T02:03:18;6.97;;;1.33;;
20792;SDS011;10556;-33.662;151.094;2022-12-29T02:08:23;3.40;;;1.27;;
20792;SDS011;10556;-33.662;151.094;2022-12-29T02:13:30;5.27;;;1.17;;
20792;SDS011;10556;-33.662;151.094;2022-12-29T02:18:34;5.50;;;1.20;;
20792;SDS011;10556;-33.662;151.094;2022-12-29T02:23:56;5.30;;;1.30;;
20792;SDS011;10556;-33.662;151.094;2022-12-29T02:29:24;3.77;;;1.10;;
20792;SDS011;10556;-33.662;151.094;2022-12-29T02:34:59;2.37;;;0.80;;
20792;SDS011;10556;-33.662;151.094;2022-12-29T02:40:09;4.23;;;1.23;;
20792;SDS011;10556;-33.662;151.094;2022-12-29T02:45:19;4.77;;;1.30;;
20792;SDS011;10556;-33.662;151.094;2022-12-29T02:50:29;5.60;;;1.33;;
20792;SDS011;10556;-33.662;151.094;2022-12-29T02:55:35;4.97;;;1.00;;
20792;SDS011;10556;-33.662;151.094;2022-12-29T03:00:37;7.40;;;1.63;;
20792;SDS011;10556;-33.662;151.094;2022-12-29T03:06:02;3.43;;;0.97;;
20792;SDS011;10556;-33.662;151.094;2022-12-29T03:11:13;4.47;;;1.10;;
20792;SDS011;10556;-33.662;151.094;2022-12-29T03:16:18;2.50;;;0.77;;
20792;SDS011;10556;-33.662;151.094;2022-12-29T03:21:27;5.17;;;0.80;;
20792;SDS011;10556;-33.662;151.094;2022-12-29T03:26:35;3.03;;;0.97;;
20792;SDS011;10556;-33.662;151.094;2022-12-29T03:31:38;4.30;;;0.93;;
20792;SDS011;10556;-33.662;151.094;2022-12-29T03:36:46;3.63;;;1.27;;
20792;SDS011;10556;-33.662;151.094;2022-12-29T03:41:54;3.53;;;1.07;;
20792;SDS011;10556;-33.662;151.094;2022-12-29T03:46:59;3.37;;;0.97;;
20792;SDS011;10556;-33.662;151.094;2022-12-29T03:52:03;7.37;;;1.77;;
20792;SDS011;10556;-33.662;151.094;2022-12-29T03:57:06;3.77;;;0.80;;
20792;SDS011;10556;-33.662;151.094;2022-12-29T04:02:09;2.57;;;0.77;;
20792;SDS011;10556;-33.662;151.094;2022-12-29T04:07:13;2.83;;;0.80;;
20792;SDS011;10556;-33.662;151.094;2022-12-29T04:12:16;2.40;;;0.90;;
20792;SDS011;10556;-33.662;151.094;2022-12-29T04:17:18;2.53;;;0.77;;
20792;SDS011;10556;-33.662;151.094;2022-12-29T04:22:22;3.57;;;1.00;;
20792;SDS011;10556;-33.662;151.094;2022-12-29T04:27:25;2.07;;;0.80;;
20792;SDS011;10556;-33.662;151.094;2022-12-29T04:32:27;1.90;;;0.70;;
20792;SDS011;10556;-33.662;151.094;2022-12-29T04:37:32;2.90;;;1.00;;
20792;SDS011;10556;-33.662;151.094;2022-12-29T04:42:34;3.13;;;0.97;;
20792;SDS011;10556;-33.662;151.094;2022-12-29T04:47:37;2.93;;;0.87;;
20792;SDS011;10556;-33.662;151.094;2022-12-29T04:52:41;3.63;;;1.07;;
20792;SDS011;10556;-33.662;151.094;2022-12-29T04:57:43;3.73;;;1.03;;
20792;SDS011;10556;-33.662;151.094;2022-12-29T05:02:46;2.70;;;1.20;;
20792;SDS011;10556;-33.662;151.094;2022-12-29T05:07:50;3.60;;;0.80;;
20792;SDS011;10556;-33.662;151.094;2022-12-29T05:12:53;2.63;;;0.70;;
20792;SDS011;10556;-33.662;151.094;2022-12-29T05:17:55;4.13;;;1.10;;
20792;SDS011;10556;-33.662;151.094;2022-12-29T05:22:59;4.80;;;0.80;;
20792;SDS011;10556;-33.662;151.094;2022-12-29T05:28:02;6.03;;;1.30;;
20792;SDS011;10556;-33.662;151.094;2022-12-29T05:33:05;2.37;;;0.80;;
20792;SDS011;10556;-33.662;151.094;2022-12-29T05:38:09;4.00;;;0.90;;
20792;SDS011;10556;-33.662;151.094;2022-12-29T05:43:11;3.43;;;1.00;;
20792;SDS011;10556;-33.662;151.094;2022-12-29T05:48:14;5.10;;;1.57;;
20792;SDS011;10556;-33.662;151.094;2022-12-29T05:53:18;2.93;;;0.80;;
20792;SDS011;10556;-33.662;151.094;2022-12-29T05:58:21;4.57;;;1.20;;
20792;SDS011;10556;-33.662;151.094;2022-12-29T06:03:23;3.70;;;0.80;;
20792;SDS011;10556;-33.662;151.094;2022-12-29T06:08:27;3.33;;;1.00;;
20792;SDS011;10556;-33.662;151.094;2022-12-29T06:13:30;3.37;;;1.10;;
20792;SDS011;10556;-33.662;151.094;2022-12-29T06:18:32;7.77;;;1.37;;
20792;SDS011;10556;-33.662;151.094;2022-12-29T06:23:36;4.50;;;1.20;;
20792;SDS011;10556;-33.662;151.094;2022-12-29T06:28:39;7.87;;;1.90;;
20792;SDS011;10556;-33.662;151.094;2022-12-29T06:33:42;8.17;;;1.70;;
20792;SDS011;10556;-33.662;151.094;2022-12-29T06:38:46;5.33;;;1.23;;
20792;SDS011;10556;-33.662;151.094;2022-12-29T06:43:48;2.10;;;0.70;;
20792;SDS011;10556;-33.662;151.094;2022-12-29T06:48:51;5.53;;;1.70;;
20792;SDS011;10556;-33.662;151.094;2022-12-29T06:53:55;3.33;;;1.13;;
20792;SDS011;10556;-33.662;151.094;2022-12-29T06:58:57;7.87;;;1.37;;
20792;SDS011;10556;-33.662;151.094;2022-12-29T07:04:00;4.40;;;1.23;;
20792;SDS011;10556;-33.662;151.094;2022-12-29T07:09:04;4.97;;;1.20;;
20792;SDS011;10556;-33.662;151.094;2022-12-29T07:14:07;6.77;;;1.63;;
20792;SDS011;10556;-33.662;151.094;2022-12-29T07:19:11;4.80;;;1.03;;
20792;SDS011;10556;-33.662;151.094;2022-12-29T07:24:15;7.80;;;1.73;;
20792;SDS011;10556;-33.662;151.094;2022-12-29T07:29:18;4.00;;;1.20;;
20792;SDS011;10556;-33.662;151.094;2022-12-29T07:34:20;6.00;;;1.40;;
20792;SDS011;10556;-33.662;151.094;2022-12-29T07:39:24;3.77;;;1.10;;
20792;SDS011;10556;-33.662;151.094;2022-12-29T07:44:27;7.10;;;1.93;;
20792;SDS011;10556;-33.662;151.094;2022-12-29T07:49:29;11.67;;;1.80;;
20792;SDS011;10556;-33.662;151.094;2022-12-29T07:54:33;14.17;;;2.07;;
20792;SDS011;10556;-33.662;151.094;2022-12-29T07:59:36;4.53;;;1.10;;
20792;SDS011;10556;-33.662;151.094;2022-12-29T08:04:38;7.20;;;1.43;;
20792;SDS011;10556;-33.662;151.094;2022-12-29T08:09:43;11.83;;;1.70;;
20792;SDS011;10556;-33.662;151.094;2022-12-29T08:14:45;5.73;;;1.50;;
20792;SDS011;10556;-33.662;151.094;2022-12-29T08:19:48;11.67;;;1.23;;
20792;SDS011;10556;-33.662;151.094;2022-12-29T08:24:52;6.77;;;1.20;;
20792;SDS011;10556;-33.662;151.094;2022-12-29T08:29:54;7.60;;;1.47;;
20792;SDS011;10556;-33.662;151.094;2022-12-29T08:34:57;7.27;;;1.57;;
20792;SDS011;10556;-33.662;151.094;2022-12-29T08:40:01;9.53;;;1.90;;
20792;SDS011;10556;-33.662;151.094;2022-12-29T08:45:04;5.23;;;1.10;;
20792;SDS011;10556;-33.662;151.094;2022-12-29T08:50:07;5.60;;;1.13;;
20792;SDS011;10556;-33.662;151.094;2022-12-29T08:55:11;4.60;;;1.23;;
20792;SDS011;10556;-33.662;151.094;2022-12-29T09:00:14;7.70;;;1.17;;
20792;SDS011;10556;-33.662;151.094;2022-12-29T09:05:17;7.43;;;1.63;;
20792;SDS011;10556;-33.662;151.094;2022-12-29T09:10:21;5.07;;;1.10;;
20792;SDS011;10556;-33.662;151.094;2022-12-29T09:15:23;4.77;;;1.33;;
20792;SDS011;10556;-33.662;151.094;2022-12-29T09:20:26;6.90;;;2.50;;
20792;SDS011;10556;-33.662;151.094;2022-12-29T09:25:30;2.93;;;1.20;;
20792;SDS011;10556;-33.662;151.094;2022-12-29T09:30:32;7.77;;;1.60;;
20792;SDS011;10556;-33.662;151.094;2022-12-29T09:35:35;4.27;;;1.53;;
20792;SDS011;10556;-33.662;151.094;2022-12-29T09:40:39;2.77;;;1.10;;
20792;SDS011;10556;-33.662;151.094;2022-12-29T09:45:42;7.33;;;1.30;;
20792;SDS011;10556;-33.662;151.094;2022-12-29T09:50:47;5.80;;;1.53;;
20792;SDS011;10556;-33.662;151.094;2022-12-29T09:55:59;12.10;;;1.50;;
20792;SDS011;10556;-33.662;151.094;2022-12-29T10:01:03;6.07;;;0.93;;
20792;SDS011;10556;-33.662;151.094;2022-12-29T10:06:08;6.73;;;1.13;;
20792;SDS011;10556;-33.662;151.094;2022-12-29T10:11:19;6.77;;;1.20;;
20792;SDS011;10556;-33.662;151.094;2022-12-29T10:16:35;3.87;;;0.90;;
20792;SDS011;10556;-33.662;151.094;2022-12-29T10:21:48;2.83;;;1.17;;
20792;SDS011;10556;-33.662;151.094;2022-12-29T10:27:03;3.73;;;1.07;;
20792;SDS011;10556;-33.662;151.094;2022-12-29T10:32:11;3.60;;;0.87;;
20792;SDS011;10556;-33.662;151.094;2022-12-29T10:37:27;4.20;;;1.20;;
20792;SDS011;10556;-33.662;151.094;2022-12-29T10:42:37;4.70;;;1.40;;
20792;SDS011;10556;-33.662;151.094;2022-12-29T10:47:47;4.43;;;1.43;;
20792;SDS011;10556;-33.662;151.094;2022-12-29T10:52:58;3.27;;;1.00;;
20792;SDS011;10556;-33.662;151.094;2022-12-29T10:58:07;4.97;;;1.20;;
20792;SDS011;10556;-33.662;151.094;2022-12-29T11:08:52;5.47;;;1.53;;
20792;SDS011;10556;-33.662;151.094;2022-12-29T11:14:02;6.27;;;1.53;;
20792;SDS011;10556;-33.662;151.094;2022-12-29T11:19:20;3.87;;;1.60;;
20792;SDS011;10556;-33.662;151.094;2022-12-29T11:24:23;4.80;;;1.63;;
20792;SDS011;10556;-33.662;151.094;2022-12-29T11:29:29;6.23;;;1.60;;
20792;SDS011;10556;-33.662;151.094;2022-12-29T11:34:39;4.60;;;1.53;;
20792;SDS011;10556;-33.662;151.094;2022-12-29T11:39:43;2.57;;;1.23;;
20792;SDS011;10556;-33.662;151.094;2022-12-29T11:44:54;2.77;;;1.40;;
20792;SDS011;10556;-33.662;151.094;2022-12-29T11:49:56;5.63;;;1.70;;
20792;SDS011;10556;-33.662;151.094;2022-12-29T11:55:01;5.40;;;1.63;;
20792;SDS011;10556;-33.662;151.094;2022-12-29T12:00:14;6.07;;;1.83;;
20792;SDS011;10556;-33.662;151.094;2022-12-29T12:05:22;7.17;;;1.90;;
20792;SDS011;10556;-33.662;151.094;2022-12-29T12:10:28;3.20;;;1.50;;
20792;SDS011;10556;-33.662;151.094;2022-12-29T12:15:39;6.57;;;1.90;;
20792;SDS011;10556;-33.662;151.094;2022-12-29T12:20:45;5.57;;;1.67;;
20792;SDS011;10556;-33.662;151.094;2022-12-29T12:25:53;8.50;;;1.77;;
20792;SDS011;10556;-33.662;151.094;2022-12-29T12:31:02;3.83;;;1.20;;
20792;SDS011;10556;-33.662;151.094;2022-12-29T12:36:19;7.00;;;1.47;;
20792;SDS011;10556;-33.662;151.094;2022-12-29T12:41:33;5.10;;;1.27;;
20792;SDS011;10556;-33.662;151.094;2022-12-29T12:52:25;6.33;;;1.67;;
20792;SDS011;10556;-33.662;151.094;2022-12-29T12:57:42;3.33;;;1.23;;
20792;SDS011;10556;-33.662;151.094;2022-12-29T13:03:05;3.90;;;1.27;;
20792;SDS011;10556;-33.662;151.094;2022-12-29T13:14:02;6.43;;;1.50;;
20792;SDS011;10556;-33.662;151.094;2022-12-29T13:19:17;3.87;;;1.10;;
20792;SDS011;10556;-33.662;151.094;2022-12-29T13:24:31;5.67;;;1.47;;
20792;SDS011;10556;-33.662;151.094;2022-12-29T13:29:45;4.10;;;1.40;;
20792;SDS011;10556;-33.662;151.094;2022-12-29T13:34:59;3.10;;;1.37;;
20792;SDS011;10556;-33.662;151.094;2022-12-29T13:40:12;5.07;;;1.30;;
20792;SDS011;10556;-33.662;151.094;2022-12-29T13:45:20;7.00;;;1.60;;
20792;SDS011;10556;-33.662;151.094;2022-12-29T13:50:25;6.53;;;1.17;;
20792;SDS011;10556;-33.662;151.094;2022-12-29T13:55:32;3.33;;;0.97;;
20792;SDS011;10556;-33.662;151.094;2022-12-29T14:00:41;5.00;;;1.17;;
20792;SDS011;10556;-33.662;151.094;2022-12-29T14:06:05;4.37;;;0.90;;
20792;SDS011;10556;-33.662;151.094;2022-12-29T14:11:18;3.27;;;0.90;;
20792;SDS011;10556;-33.662;151.094;2022-12-29T14:16:25;2.57;;;0.77;;
20792;SDS011;10556;-33.662;151.094;2022-12-29T14:21:30;5.03;;;1.20;;
20792;SDS011;10556;-33.662;151.094;2022-12-29T14:26:35;2.90;;;1.27;;
20792;SDS011;10556;-33.662;151.094;2022-12-29T14:31:38;5.10;;;0.80;;
20792;SDS011;10556;-33.662;151.094;2022-12-29T14:36:41;2.20;;;0.63;;
20792;SDS011;10556;-33.662;151.094;2022-12-29T14:42:01;1.93;;;0.80;;
20792;SDS011;10556;-33.662;151.094;2022-12-29T14:47:13;6.17;;;1.20;;
20792;SDS011;10556;-33.662;151.094;2022-12-29T14:52:21;5.67;;;0.90;;
20792;SDS011;10556;-33.662;151.094;2022-12-29T14:57:29;1.83;;;0.80;;
20792;SDS011;10556;-33.662;151.094;2022-12-29T15:02:37;1.40;;;0.63;;
20792;SDS011;10556;-33.662;151.094;2022-12-29T15:07:42;3.30;;;0.70;;
20792;SDS011;10556;-33.662;151.094;2022-12-29T15:12:47;1.93;;;0.73;;
20792;SDS011;10556;-33.662;151.094;2022-12-29T15:17:53;7.13;;;1.70;;
20792;SDS011;10556;-33.662;151.094;2022-12-29T15:22:56;2.37;;;0.70;;
20792;SDS011;10556;-33.662;151.094;2022-12-29T15:28:03;5.70;;;1.07;;
20792;SDS011;10556;-33.662;151.094;2022-12-29T15:33:15;1.20;;;0.70;;
20792;SDS011;10556;-33.662;151.094;2022-12-29T15:38:21;1.63;;;0.67;;
20792;SDS011;10556;-33.662;151.094;2022-12-29T15:43:29;2.87;;;0.60;;
20792;SDS011;10556;-33.662;151.094;2022-12-29T15:48:51;3.60;;;1.17;;
20792;SDS011;10556;-33.662;151.094;2022-12-29T15:53:53;5.50;;;1.13;;
20792;SDS011;10556;-33.662;151.094;2022-12-29T15:58:58;2.63;;;0.80;;
20792;SDS011;10556;-33.662;151.094;2022-12-29T16:04:03;3.40;;;0.87;;
20792;SDS011;10556;-33.662;151.094;2022-12-29T16:09:10;3.97;;;0.90;;
20792;SDS011;10556;-33.662;151.094;2022-12-29T16:14:19;7.50;;;1.53;;
20792;SDS011;10556;-33.662;151.094;2022-12-29T16:19:26;4.43;;;0.90;;
20792;SDS011;10556;-33.662;151.094;2022-12-29T16:24:31;4.80;;;1.47;;
20792;SDS011;10556;-33.662;151.094;2022-12-29T16:29:35;2.53;;;0.97;;
20792;SDS011;10556;-33.662;151.094;2022-12-29T16:34:42;4.73;;;1.13;;
20792;SDS011;10556;-33.662;151.094;2022-12-29T16:39:45;1.97;;;0.90;;
20792;SDS011;10556;-33.662;151.094;2022-12-29T16:44:50;2.60;;;1.10;;
20792;SDS011;10556;-33.662;151.094;2022-12-29T16:50:10;4.27;;;1.20;;
20792;SDS011;10556;-33.662;151.094;2022-12-29T16:55:19;4.30;;;1.27;;
20792;SDS011;10556;-33.662;151.094;2022-12-29T17:00:34;2.23;;;1.00;;
20792;SDS011;10556;-33.662;151.094;2022-12-29T17:05:38;2.33;;;0.97;;
20792;SDS011;10556;-33.662;151.094;2022-12-29T17:10:40;6.67;;;1.13;;
20792;SDS011;10556;-33.662;151.094;2022-12-29T17:15:44;12.53;;;1.97;;
20792;SDS011;10556;-33.662;151.094;2022-12-29T17:20:48;2.90;;;1.50;;
20792;SDS011;10556;-33.662;151.094;2022-12-29T17:25:50;3.47;;;1.47;;
20792;SDS011;10556;-33.662;151.094;2022-12-29T17:30:55;2.27;;;1.30;;
20792;SDS011;10556;-33.662;151.094;2022-12-29T17:36:00;5.30;;;1.60;;
20792;SDS011;10556;-33.662;151.094;2022-12-29T17:41:03;4.67;;;1.33;;
20792;SDS011;10556;-33.662;151.094;2022-12-29T17:46:13;3.03;;;1.33;;
20792;SDS011;10556;-33.662;151.094;2022-12-29T17:51:15;4.40;;;1.47;;
20792;SDS011;10556;-33.662;151.094;2022-12-29T17:56:19;4.20;;;1.47;;
20792;SDS011;10556;-33.662;151.094;2022-12-29T18:01:23;3.70;;;0.80;;
20792;SDS011;10556;-33.662;151.094;2022-12-29T18:06:25;3.73;;;1.00;;
20792;SDS011;10556;-33.662;151.094;2022-12-29T18:11:28;4.00;;;0.70;;
20792;SDS011;10556;-33.662;151.094;2022-12-29T18:16:32;1.93;;;0.60;;
20792;SDS011;10556;-33.662;151.094;2022-12-29T18:21:35;2.60;;;1.10;;
20792;SDS011;10556;-33.662;151.094;2022-12-29T18:26:44;1.80;;;0.50;;
20792;SDS011;10556;-33.662;151.094;2022-12-29T18:31:48;1.00;;;0.60;;
20792;SDS011;10556;-33.662;151.094;2022-12-29T18:36:50;1.03;;;0.43;;
20792;SDS011;10556;-33.662;151.094;2022-12-29T18:41:53;1.60;;;0.50;;
20792;SDS011;10556;-33.662;151.094;2022-12-29T18:46:57;1.53;;;0.30;;
20792;SDS011;10556;-33.662;151.094;2022-12-29T18:51:59;0.77;;;0.27;;
20792;SDS011;10556;-33.662;151.094;2022-12-29T18:57:02;0.20;;;0.20;;
20792;SDS011;10556;-33.662;151.094;2022-12-29T19:02:08;1.13;;;0.30;;
20792;SDS011;10556;-33.662;151.094;2022-12-29T19:07:16;0.30;;;0.20;;
20792;SDS011;10556;-33.662;151.094;2022-12-29T19:12:19;1.90;;;0.40;;
20792;SDS011;10556;-33.662;151.094;2022-12-29T19:17:23;0.17;;;0.17;;
20792;SDS011;10556;-33.662;151.094;2022-12-29T19:22:25;0.77;;;0.20;;
20792;SDS011;10556;-33.662;151.094;2022-12-29T19:27:28;0.40;;;0.20;;
20792;SDS011;10556;-33.662;151.094;2022-12-29T19:32:32;0.20;;;0.20;;
20792;SDS011;10556;-33.662;151.094;2022-12-29T19:37:35;0.20;;;0.20;;
20792;SDS011;10556;-33.662;151.094;2022-12-29T19:42:38;0.20;;;0.10;;
20792;SDS011;10556;-33.662;151.094;2022-12-29T19:47:42;0.23;;;0.10;;
20792;SDS011;10556;-33.662;151.094;2022-12-29T19:52:44;0.17;;;0.13;;
20792;SDS011;10556;-33.662;151.094;2022-12-29T19:57:47;0.30;;;0.20;;
20792;SDS011;10556;-33.662;151.094;2022-12-29T20:02:51;0.20;;;0.20;;
20792;SDS011;10556;-33.662;151.094;2022-12-29T20:07:54;0.20;;;0.10;;
20792;SDS011;10556;-33.662;151.094;2022-12-29T20:12:56;1.60;;;0.20;;
20792;SDS011;10556;-33.662;151.094;2022-12-29T20:18:01;0.10;;;0.10;;
20792;SDS011;10556;-33.662;151.094;2022-12-29T20:23:03;0.10;;;0.10;;
20792;SDS011;10556;-33.662;151.094;2022-12-29T20:28:06;0.20;;;0.10;;
20792;SDS011;10556;-33.662;151.094;2022-12-29T20:33:10;0.20;;;0.20;;
20792;SDS011;10556;-33.662;151.094;2022-12-29T20:38:12;0.20;;;0.20;;
20792;SDS011;10556;-33.662;151.094;2022-12-29T20:43:16;0.37;;;0.23;;
20792;SDS011;10556;-33.662;151.094;2022-12-29T20:48:20;1.03;;;0.30;;
20792;SDS011;10556;-33.662;151.094;2022-12-29T20:53:22;0.77;;;0.30;;
20792;SDS011;10556;-33.662;151.094;2022-12-29T20:58:25;0.80;;;0.20;;
20792;SDS011;10556;-33.662;151.094;2022-12-29T21:03:29;1.33;;;0.30;;
20792;SDS011;10556;-33.662;151.094;2022-12-29T21:08:32;0.67;;;0.20;;
20792;SDS011;10556;-33.662;151.094;2022-12-29T21:13:35;1.70;;;0.60;;
20792;SDS011;10556;-33.662;151.094;2022-12-29T21:18:40;0.50;;;0.30;;
20792;SDS011;10556;-33.662;151.094;2022-12-29T21:23:42;0.57;;;0.53;;
20792;SDS011;10556;-33.662;151.094;2022-12-29T21:28:45;5.43;;;0.90;;
20792;SDS011;10556;-33.662;151.094;2022-12-29T21:33:49;2.87;;;0.47;;
20792;SDS011;10556;-33.662;151.094;2022-12-29T21:38:52;3.67;;;1.03;;
20792;SDS011;10556;-33.662;151.094;2022-12-29T21:43:54;1.80;;;0.60;;
20792;SDS011;10556;-33.662;151.094;2022-12-29T21:48:59;4.73;;;1.27;;
20792;SDS011;10556;-33.662;151.094;2022-12-29T21:54:02;1.80;;;0.80;;
20792;SDS011;10556;-33.662;151.094;2022-12-29T21:59:04;0.80;;;0.60;;
20792;SDS011;10556;-33.662;151.094;2022-12-29T22:04:12;1.30;;;0.73;;
20792;SDS011;10556;-33.662;151.094;2022-12-29T22:09:15;1.83;;;1.03;;
20792;SDS011;10556;-33.662;151.094;2022-12-29T22:14:17;4.03;;;1.20;;
20792;SDS011;10556;-33.662;151.094;2022-12-29T22:19:21;7.00;;;1.30;;
20792;SDS011;10556;-33.662;151.094;2022-12-29T22:24:24;5.63;;;0.87;;
20792;SDS011;10556;-33.662;151.094;2022-12-29T22:29:29;4.17;;;1.37;;
20792;SDS011;10556;-33.662;151.094;2022-12-29T22:34:33;9.57;;;1.47;;
20792;SDS011;10556;-33.662;151.094;2022-12-29T22:39:36;11.27;;;1.27;;
20792;SDS011;10556;-33.662;151.094;2022-12-29T22:44:38;5.70;;;1.10;;
20792;SDS011;10556;-33.662;151.094;2022-12-29T22:49:43;2.77;;;1.40;;
20792;SDS011;10556;-33.662;151.094;2022-12-29T22:54:45;4.93;;;1.30;;
20792;SDS011;10556;-33.662;151.094;2022-12-29T22:59:47;4.57;;;1.60;;
20792;SDS011;10556;-33.662;151.094;2022-12-29T23:04:52;8.73;;;1.90;;
20792;SDS011;10556;-33.662;151.094;2022-12-29T23:09:54;9.87;;;1.93;;
20792;SDS011;10556;-33.662;151.094;2022-12-29T23:14:56;4.87;;;1.30;;
20792;SDS011;10556;-33.662;151.094;2022-12-29T23:20:01;6.60;;;1.77;;
20792;SDS011;10556;-33.662;151.094;2022-12-29T23:25:05;4.13;;;1.33;;
20792;SDS011;10556;-33.662;151.094;2022-12-29T23:30:07;6.23;;;1.73;;
20792;SDS011;10556;-33.662;151.094;2022-12-29T23:35:12;3.23;;;1.50;;
20792;SDS011;10556;-33.662;151.094;2022-12-29T23:40:15;4.80;;;1.80;;
20792;SDS011;10556;-33.662;151.094;2022-12-29T23:45:17;9.47;;;2.03;;
20792;SDS011;10556;-33.662;151.094;2022-12-29T23:50:21;10.70;;;1.50;;
20792;SDS011;10556;-33.662;151.094;2022-12-29T23:55:24;4.10;;;1.30;;
